sensor_id;sensor_type;location;lat;lon;timestamp;pressure;altitude;pressure_sealevel;temperature;humidity
70133;BME280;57495;49.922;7.966;2023-07-31T00:00:09;99764.91;;;18.35;74.47
70133;BME280;57495;49.922;7.966;2023-07-31T00:02:11;99765.69;;;18.29;75.51
70133;BME280;57495;49.922;7.966;2023-07-31T00:04:12;99763.94;;;18.14;76.77
70133;BME280;57495;49.922;7.966;2023-07-31T00:06:13;99757.28;;;18.17;75.75
70133;BME280;57495;49.922;7.966;2023-07-31T00:08:16;99759.84;;;18.25;75.60
70133;BME280;57495;49.922;7.966;2023-07-31T00:10:17;99763.13;;;18.21;76.69
70133;BME280;57495;49.922;7.966;2023-07-31T00:12:18;99752.75;;;18.24;76.17
70133;BME280;57495;49.922;7.966;2023-07-31T00:14:20;99757.72;;;18.21;76.35
70133;BME280;57495;49.922;7.966;2023-07-31T00:16:21;99761.47;;;18.20;76.17
70133;BME280;57495;49.922;7.966;2023-07-31T00:18:23;99757.69;;;18.14;76.76
70133;BME280;57495;49.922;7.966;2023-07-31T00:20:24;99758.34;;;18.23;75.63
70133;BME280;57495;49.922;7.966;2023-07-31T00:22:26;99754.44;;;18.25;75.57
70133;BME280;57495;49.922;7.966;2023-07-31T00:24:28;99758.78;;;18.26;75.12
70133;BME280;57495;49.922;7.966;2023-07-31T00:26:29;99764.84;;;18.28;75.68
70133;BME280;57495;49.922;7.966;2023-07-31T00:28:30;99760.25;;;18.22;76.13
70133;BME280;57495;49.922;7.966;2023-07-31T00:30:31;99761.03;;;18.16;76.39
70133;BME280;57495;49.922;7.966;2023-07-31T00:32:32;99755.66;;;18.23;76.51
70133;BME280;57495;49.922;7.966;2023-07-31T00:34:33;99758.72;;;18.13;77.39
70133;BME280;57495;49.922;7.966;2023-07-31T00:36:35;99752.47;;;18.12;76.21
70133;BME280;57495;49.922;7.966;2023-07-31T00:38:36;99761.44;;;18.13;76.55
70133;BME280;57495;49.922;7.966;2023-07-31T00:40:39;99756.66;;;18.15;77.23
70133;BME280;57495;49.922;7.966;2023-07-31T00:42:40;99750.78;;;18.11;77.36
70133;BME280;57495;49.922;7.966;2023-07-31T00:44:42;99746.00;;;18.07;77.25
70133;BME280;57495;49.922;7.966;2023-07-31T00:46:42;99743.09;;;18.08;76.53
70133;BME280;57495;49.922;7.966;2023-07-31T00:48:43;99742.66;;;18.05;77.71
70133;BME280;57495;49.922;7.966;2023-07-31T00:50:45;99741.47;;;18.14;76.31
70133;BME280;57495;49.922;7.966;2023-07-31T00:52:46;99749.16;;;18.17;75.62
70133;BME280;57495;49.922;7.966;2023-07-31T00:54:48;99742.47;;;18.13;76.13
70133;BME280;57495;49.922;7.966;2023-07-31T00:56:52;99755.19;;;18.12;76.67
70133;BME280;57495;49.922;7.966;2023-07-31T00:58:55;99748.69;;;18.07;77.33
70133;BME280;57495;49.922;7.966;2023-07-31T01:00:57;99745.56;;;18.10;76.67
70133;BME280;57495;49.922;7.966;2023-07-31T01:02:58;99746.00;;;18.07;76.94
70133;BME280;57495;49.922;7.966;2023-07-31T01:05:00;99749.91;;;18.04;77.58
70133;BME280;57495;49.922;7.966;2023-07-31T01:07:09;99752.44;;;18.06;76.57
70133;BME280;57495;49.922;7.966;2023-07-31T01:09:20;99751.78;;;18.04;77.18
70133;BME280;57495;49.922;7.966;2023-07-31T01:11:26;99751.53;;;17.99;78.36
70133;BME280;57495;49.922;7.966;2023-07-31T01:13:30;99758.44;;;18.01;78.07
70133;BME280;57495;49.922;7.966;2023-07-31T01:15:31;99748.00;;;17.98;79.17
70133;BME280;57495;49.922;7.966;2023-07-31T01:17:33;99753.44;;;17.98;79.19
70133;BME280;57495;49.922;7.966;2023-07-31T01:19:33;99746.31;;;17.97;77.30
70133;BME280;57495;49.922;7.966;2023-07-31T01:21:58;99748.00;;;17.98;78.29
70133;BME280;57495;49.922;7.966;2023-07-31T01:24:20;99744.63;;;17.89;78.81
70133;BME280;57495;49.922;7.966;2023-07-31T01:26:28;99740.09;;;17.96;78.67
70133;BME280;57495;49.922;7.966;2023-07-31T01:28:39;99738.47;;;18.02;78.83
70133;BME280;57495;49.922;7.966;2023-07-31T01:30:43;99734.69;;;17.96;78.47
70133;BME280;57495;49.922;7.966;2023-07-31T01:32:47;99726.81;;;18.02;78.80
70133;BME280;57495;49.922;7.966;2023-07-31T01:34:49;99725.09;;;17.94;78.81
70133;BME280;57495;49.922;7.966;2023-07-31T01:36:51;99728.50;;;17.81;79.68
70133;BME280;57495;49.922;7.966;2023-07-31T01:38:57;99724.22;;;17.87;79.71
70133;BME280;57495;49.922;7.966;2023-07-31T01:40:59;99715.47;;;17.85;80.19
70133;BME280;57495;49.922;7.966;2023-07-31T01:43:02;99719.25;;;17.97;79.93
70133;BME280;57495;49.922;7.966;2023-07-31T01:45:04;99712.41;;;17.94;79.13
70133;BME280;57495;49.922;7.966;2023-07-31T01:47:05;99714.66;;;17.91;79.93
70133;BME280;57495;49.922;7.966;2023-07-31T01:49:07;99713.84;;;17.90;78.72
70133;BME280;57495;49.922;7.966;2023-07-31T01:51:08;99710.88;;;17.85;79.36
70133;BME280;57495;49.922;7.966;2023-07-31T01:53:10;99710.41;;;17.82;79.52
70133;BME280;57495;49.922;7.966;2023-07-31T01:55:12;99702.38;;;17.88;79.72
70133;BME280;57495;49.922;7.966;2023-07-31T01:57:13;99700.41;;;17.82;79.22
70133;BME280;57495;49.922;7.966;2023-07-31T01:59:16;99705.59;;;17.77;80.52
70133;BME280;57495;49.922;7.966;2023-07-31T02:01:18;99697.06;;;17.80;79.69
70133;BME280;57495;49.922;7.966;2023-07-31T02:03:19;99691.66;;;17.80;80.07
70133;BME280;57495;49.922;7.966;2023-07-31T02:05:20;99688.22;;;17.86;79.47
70133;BME280;57495;49.922;7.966;2023-07-31T02:07:22;99687.03;;;17.95;78.98
70133;BME280;57495;49.922;7.966;2023-07-31T02:09:23;99687.94;;;17.81;80.22
70133;BME280;57495;49.922;7.966;2023-07-31T02:11:24;99681.38;;;17.90;79.17
70133;BME280;57495;49.922;7.966;2023-07-31T02:13:26;99679.19;;;17.79;79.99
70133;BME280;57495;49.922;7.966;2023-07-31T02:15:28;99686.03;;;17.75;80.96
70133;BME280;57495;49.922;7.966;2023-07-31T02:17:29;99685.38;;;17.73;81.47
70133;BME280;57495;49.922;7.966;2023-07-31T02:19:30;99685.38;;;17.73;81.83
70133;BME280;57495;49.922;7.966;2023-07-31T02:21:31;99684.50;;;17.66;82.20
70133;BME280;57495;49.922;7.966;2023-07-31T02:23:32;99680.38;;;17.70;82.33
70133;BME280;57495;49.922;7.966;2023-07-31T02:25:34;99674.03;;;17.56;82.84
70133;BME280;57495;49.922;7.966;2023-07-31T02:27:35;99685.19;;;17.46;83.39
70133;BME280;57495;49.922;7.966;2023-07-31T02:29:36;99674.38;;;17.46;83.66
70133;BME280;57495;49.922;7.966;2023-07-31T02:31:39;99679.84;;;17.53;83.57
70133;BME280;57495;49.922;7.966;2023-07-31T02:33:41;99674.22;;;17.54;83.42
70133;BME280;57495;49.922;7.966;2023-07-31T02:35:42;99681.06;;;17.50;83.53
70133;BME280;57495;49.922;7.966;2023-07-31T02:37:43;99693.94;;;17.48;84.01
70133;BME280;57495;49.922;7.966;2023-07-31T02:39:45;99696.06;;;17.53;83.13
70133;BME280;57495;49.922;7.966;2023-07-31T02:41:46;99699.84;;;17.58;82.40
70133;BME280;57495;49.922;7.966;2023-07-31T02:43:48;99703.13;;;17.54;83.13
70133;BME280;57495;49.922;7.966;2023-07-31T02:45:51;99697.09;;;17.52;83.08
70133;BME280;57495;49.922;7.966;2023-07-31T02:47:54;99702.94;;;17.55;83.24
70133;BME280;57495;49.922;7.966;2023-07-31T02:49:55;99701.91;;;17.56;82.91
70133;BME280;57495;49.922;7.966;2023-07-31T02:51:57;99706.03;;;17.52;83.73
70133;BME280;57495;49.922;7.966;2023-07-31T02:53:58;99703.94;;;17.54;84.04
70133;BME280;57495;49.922;7.966;2023-07-31T02:55:58;99693.25;;;17.68;83.19
70133;BME280;57495;49.922;7.966;2023-07-31T02:58:00;99702.94;;;17.55;83.82
70133;BME280;57495;49.922;7.966;2023-07-31T03:00:02;99699.59;;;17.53;83.58
70133;BME280;57495;49.922;7.966;2023-07-31T03:02:06;99708.59;;;17.61;83.33
70133;BME280;57495;49.922;7.966;2023-07-31T03:04:08;99700.31;;;17.69;83.28
70133;BME280;57495;49.922;7.966;2023-07-31T03:06:10;99705.25;;;17.58;83.45
70133;BME280;57495;49.922;7.966;2023-07-31T03:08:11;99701.91;;;17.56;83.85
70133;BME280;57495;49.922;7.966;2023-07-31T03:10:12;99693.56;;;17.51;83.90
70133;BME280;57495;49.922;7.966;2023-07-31T03:12:14;99691.56;;;17.60;82.50
70133;BME280;57495;49.922;7.966;2023-07-31T03:14:15;99694.03;;;17.62;83.23
70133;BME280;57495;49.922;7.966;2023-07-31T03:16:17;99690.69;;;17.59;82.96
70133;BME280;57495;49.922;7.966;2023-07-31T03:18:18;99694.88;;;17.62;82.77
70133;BME280;57495;49.922;7.966;2023-07-31T03:20:21;99700.31;;;17.69;82.12
70133;BME280;57495;49.922;7.966;2023-07-31T03:22:22;99689.47;;;17.62;82.20
70133;BME280;57495;49.922;7.966;2023-07-31T03:24:24;99687.59;;;17.63;82.23
70133;BME280;57495;49.922;7.966;2023-07-31T03:26:25;99688.69;;;17.68;81.35
70133;BME280;57495;49.922;7.966;2023-07-31T03:28:27;99692.22;;;17.69;81.40
70133;BME280;57495;49.922;7.966;2023-07-31T03:30:28;99694.91;;;17.69;82.03
70133;BME280;57495;49.922;7.966;2023-07-31T03:32:29;99690.06;;;17.57;83.35
70133;BME280;57495;49.922;7.966;2023-07-31T03:34:31;99693.66;;;17.65;83.41
70133;BME280;57495;49.922;7.966;2023-07-31T03:36:34;99691.19;;;17.70;83.56
70133;BME280;57495;49.922;7.966;2023-07-31T03:38:35;99691.97;;;17.64;83.40
70133;BME280;57495;49.922;7.966;2023-07-31T03:40:37;99697.53;;;17.55;82.73
70133;BME280;57495;49.922;7.966;2023-07-31T03:42:38;99690.88;;;17.58;84.04
70133;BME280;57495;49.922;7.966;2023-07-31T03:44:40;99694.81;;;17.55;84.90
70133;BME280;57495;49.922;7.966;2023-07-31T03:46:40;99690.13;;;17.64;84.89
70133;BME280;57495;49.922;7.966;2023-07-31T03:48:42;99689.03;;;17.58;85.38
70133;BME280;57495;49.922;7.966;2023-07-31T03:50:43;99693.59;;;17.58;84.22
70133;BME280;57495;49.922;7.966;2023-07-31T03:52:46;99688.59;;;17.55;85.12
70133;BME280;57495;49.922;7.966;2023-07-31T03:54:48;99683.75;;;17.50;84.92
70133;BME280;57495;49.922;7.966;2023-07-31T03:56:49;99687.06;;;17.46;85.62
70133;BME280;57495;49.922;7.966;2023-07-31T03:58:51;99688.28;;;17.43;85.42
70133;BME280;57495;49.922;7.966;2023-07-31T04:00:51;99684.16;;;17.47;84.44
70133;BME280;57495;49.922;7.966;2023-07-31T04:02:53;99685.38;;;17.45;84.63
70133;BME280;57495;49.922;7.966;2023-07-31T04:04:54;99679.78;;;17.46;85.16
70133;BME280;57495;49.922;7.966;2023-07-31T04:06:55;99666.91;;;17.48;84.84
70133;BME280;57495;49.922;7.966;2023-07-31T04:08:58;99675.81;;;17.42;84.99
70133;BME280;57495;49.922;7.966;2023-07-31T04:10:58;99668.59;;;17.49;84.82
70133;BME280;57495;49.922;7.966;2023-07-31T04:13:00;99670.44;;;17.49;84.62
70133;BME280;57495;49.922;7.966;2023-07-31T04:15:00;99663.94;;;17.43;84.82
70133;BME280;57495;49.922;7.966;2023-07-31T04:17:02;99657.00;;;17.34;85.47
70133;BME280;57495;49.922;7.966;2023-07-31T04:19:03;99668.34;;;17.23;87.46
70133;BME280;57495;49.922;7.966;2023-07-31T04:21:05;99653.03;;;17.30;86.01
70133;BME280;57495;49.922;7.966;2023-07-31T04:23:06;99662.19;;;17.29;85.95
70133;BME280;57495;49.922;7.966;2023-07-31T04:25:09;99645.97;;;17.29;86.27
70133;BME280;57495;49.922;7.966;2023-07-31T04:27:10;99654.75;;;17.37;85.23
70133;BME280;57495;49.922;7.966;2023-07-31T04:29:12;99654.94;;;17.36;85.84
70133;BME280;57495;49.922;7.966;2023-07-31T04:31:13;99651.41;;;17.35;85.22
70133;BME280;57495;49.922;7.966;2023-07-31T04:33:15;99657.16;;;17.26;86.06
70133;BME280;57495;49.922;7.966;2023-07-31T04:35:16;99653.81;;;17.24;87.32
70133;BME280;57495;49.922;7.966;2023-07-31T04:37:17;99645.97;;;17.29;85.92
70133;BME280;57495;49.922;7.966;2023-07-31T04:39:18;99643.47;;;17.27;87.26
70133;BME280;57495;49.922;7.966;2023-07-31T04:41:21;99641.13;;;17.24;87.19
70133;BME280;57495;49.922;7.966;2023-07-31T04:43:22;99647.63;;;17.30;86.82
70133;BME280;57495;49.922;7.966;2023-07-31T04:45:24;99651.38;;;17.29;87.48
70133;BME280;57495;49.922;7.966;2023-07-31T04:47:24;99650.31;;;17.30;86.37
70133;BME280;57495;49.922;7.966;2023-07-31T04:49:25;99662.06;;;17.15;88.31
70133;BME280;57495;49.922;7.966;2023-07-31T04:51:27;99662.94;;;17.23;88.29
70133;BME280;57495;49.922;7.966;2023-07-31T04:53:28;99656.88;;;17.14;88.67
70133;BME280;57495;49.922;7.966;2023-07-31T04:55:30;99660.78;;;17.11;89.22
70133;BME280;57495;49.922;7.966;2023-07-31T04:57:32;99662.69;;;17.17;88.32
70133;BME280;57495;49.922;7.966;2023-07-31T04:59:34;99661.94;;;17.24;89.30
70133;BME280;57495;49.922;7.966;2023-07-31T05:01:35;99658.00;;;17.26;88.24
70133;BME280;57495;49.922;7.966;2023-07-31T05:03:36;99652.09;;;17.16;87.60
70133;BME280;57495;49.922;7.966;2023-07-31T05:05:38;99646.69;;;17.16;88.40
70133;BME280;57495;49.922;7.966;2023-07-31T05:07:39;99648.75;;;17.14;88.22
70133;BME280;57495;49.922;7.966;2023-07-31T05:09:41;99648.75;;;17.14;88.77
70133;BME280;57495;49.922;7.966;2023-07-31T05:11:42;99651.47;;;17.14;89.92
70133;BME280;57495;49.922;7.966;2023-07-31T05:13:45;99645.72;;;17.24;88.83
70133;BME280;57495;49.922;7.966;2023-07-31T05:15:46;99648.41;;;17.24;88.75
70133;BME280;57495;49.922;7.966;2023-07-31T05:17:49;99653.13;;;17.15;88.42
70133;BME280;57495;49.922;7.966;2023-07-31T05:19:50;99652.75;;;17.18;87.81
70133;BME280;57495;49.922;7.966;2023-07-31T05:21:52;99643.59;;;17.19;89.08
70133;BME280;57495;49.922;7.966;2023-07-31T05:23:53;99645.97;;;17.29;87.81
70133;BME280;57495;49.922;7.966;2023-07-31T05:25:55;99644.66;;;17.25;87.75
70133;BME280;57495;49.922;7.966;2023-07-31T05:27:56;99647.91;;;17.13;89.28
70133;BME280;57495;49.922;7.966;2023-07-31T05:29:59;99649.06;;;17.04;90.51
70133;BME280;57495;49.922;7.966;2023-07-31T05:32:00;99647.88;;;17.07;89.37
70133;BME280;57495;49.922;7.966;2023-07-31T05:34:01;99649.13;;;17.11;89.76
70133;BME280;57495;49.922;7.966;2023-07-31T05:36:02;99642.94;;;17.17;90.93
70133;BME280;57495;49.922;7.966;2023-07-31T05:38:03;99641.47;;;17.14;90.31
70133;BME280;57495;49.922;7.966;2023-07-31T05:40:05;99639.34;;;17.10;91.21
70133;BME280;57495;49.922;7.966;2023-07-31T05:42:07;99631.47;;;17.08;91.02
70133;BME280;57495;49.922;7.966;2023-07-31T05:44:09;99630.47;;;17.16;91.45
70133;BME280;57495;49.922;7.966;2023-07-31T05:46:11;99629.44;;;17.17;90.81
70133;BME280;57495;49.922;7.966;2023-07-31T05:48:13;99624.63;;;17.12;90.78
70133;BME280;57495;49.922;7.966;2023-07-31T05:50:14;99623.84;;;17.18;91.19
70133;BME280;57495;49.922;7.966;2023-07-31T05:52:16;99610.97;;;17.20;89.62
70133;BME280;57495;49.922;7.966;2023-07-31T05:54:17;99616.19;;;17.22;91.40
70133;BME280;57495;49.922;7.966;2023-07-31T05:56:18;99613.47;;;17.22;90.04
70133;BME280;57495;49.922;7.966;2023-07-31T05:58:19;99614.81;;;17.33;91.08
70133;BME280;57495;49.922;7.966;2023-07-31T06:00:20;99615.81;;;17.32;90.59
70133;BME280;57495;49.922;7.966;2023-07-31T06:02:23;99617.75;;;17.38;90.77
70133;BME280;57495;49.922;7.966;2023-07-31T06:04:25;99623.25;;;17.51;90.34
70133;BME280;57495;49.922;7.966;2023-07-31T06:06:26;99617.69;;;17.59;91.96
70133;BME280;57495;49.922;7.966;2023-07-31T06:08:28;99619.16;;;17.62;90.53
70133;BME280;57495;49.922;7.966;2023-07-31T06:10:29;99619.19;;;17.69;89.61
70133;BME280;57495;49.922;7.966;2023-07-31T06:12:30;99619.91;;;17.84;89.78
70133;BME280;57495;49.922;7.966;2023-07-31T06:14:31;99612.59;;;17.78;88.21
70133;BME280;57495;49.922;7.966;2023-07-31T06:16:32;99613.41;;;17.72;88.96
70133;BME280;57495;49.922;7.966;2023-07-31T06:18:35;99611.75;;;17.77;89.92
70133;BME280;57495;49.922;7.966;2023-07-31T06:20:36;99615.47;;;17.70;89.97
70133;BME280;57495;49.922;7.966;2023-07-31T06:22:37;99608.34;;;17.62;89.10
70133;BME280;57495;49.922;7.966;2023-07-31T06:24:38;99612.47;;;17.58;90.41
70133;BME280;57495;49.922;7.966;2023-07-31T06:26:40;99610.81;;;17.57;89.47
70133;BME280;57495;49.922;7.966;2023-07-31T06:28:41;99606.28;;;17.64;86.70
70133;BME280;57495;49.922;7.966;2023-07-31T06:30:43;99622.94;;;17.68;86.31
70133;BME280;57495;49.922;7.966;2023-07-31T06:32:44;99617.34;;;17.76;86.94
70133;BME280;57495;49.922;7.966;2023-07-31T06:34:47;99616.63;;;17.89;86.78
70133;BME280;57495;49.922;7.966;2023-07-31T06:36:48;99616.34;;;18.12;85.02
70133;BME280;57495;49.922;7.966;2023-07-31T06:38:50;99621.59;;;18.27;84.77
70133;BME280;57495;49.922;7.966;2023-07-31T06:40:51;99621.59;;;18.33;85.88
70133;BME280;57495;49.922;7.966;2023-07-31T06:42:53;99616.19;;;18.33;85.41
70133;BME280;57495;49.922;7.966;2023-07-31T06:44:54;99620.13;;;18.31;84.39
70133;BME280;57495;49.922;7.966;2023-07-31T06:46:56;99610.97;;;18.25;83.68
70133;BME280;57495;49.922;7.966;2023-07-31T06:48:57;99613.66;;;18.32;84.86
70133;BME280;57495;49.922;7.966;2023-07-31T06:51:00;99613.31;;;18.42;85.65
70133;BME280;57495;49.922;7.966;2023-07-31T06:53:01;99606.19;;;18.27;83.69
70133;BME280;57495;49.922;7.966;2023-07-31T06:55:15;99607.03;;;18.34;85.19
70133;BME280;57495;49.922;7.966;2023-07-31T06:57:17;99603.91;;;18.31;84.58
70133;BME280;57495;49.922;7.966;2023-07-31T06:59:19;99599.28;;;18.25;85.10
70133;BME280;57495;49.922;7.966;2023-07-31T07:01:20;99602.41;;;18.22;83.94
70133;BME280;57495;49.922;7.966;2023-07-31T07:03:22;99603.25;;;18.22;84.14
70133;BME280;57495;49.922;7.966;2023-07-31T07:05:23;99613.03;;;18.30;84.88
70133;BME280;57495;49.922;7.966;2023-07-31T07:07:26;99614.59;;;18.59;84.17
70133;BME280;57495;49.922;7.966;2023-07-31T07:09:27;99602.78;;;19.13;84.72
70133;BME280;57495;49.922;7.966;2023-07-31T07:11:29;99595.91;;;19.18;80.13
70133;BME280;57495;49.922;7.966;2023-07-31T07:13:30;99614.66;;;19.26;80.21
70133;BME280;57495;49.922;7.966;2023-07-31T07:15:31;99595.91;;;19.11;81.25
70133;BME280;57495;49.922;7.966;2023-07-31T07:17:33;99587.97;;;19.16;79.56
70133;BME280;57495;49.922;7.966;2023-07-31T07:19:34;99588.78;;;19.43;80.51
70133;BME280;57495;49.922;7.966;2023-07-31T07:21:36;99587.97;;;19.36;81.23
70133;BME280;57495;49.922;7.966;2023-07-31T07:23:38;99582.75;;;19.15;80.02
70133;BME280;57495;49.922;7.966;2023-07-31T07:25:40;99575.47;;;19.08;80.79
70133;BME280;57495;49.922;7.966;2023-07-31T07:27:41;99570.91;;;19.16;81.59
70133;BME280;57495;49.922;7.966;2023-07-31T07:29:43;99567.53;;;19.00;81.48
70133;BME280;57495;49.922;7.966;2023-07-31T07:31:44;99565.25;;;18.84;81.06
70133;BME280;57495;49.922;7.966;2023-07-31T07:33:45;99580.88;;;18.75;81.32
70133;BME280;57495;49.922;7.966;2023-07-31T07:35:47;99573.38;;;18.84;82.89
70133;BME280;57495;49.922;7.966;2023-07-31T07:37:49;99564.81;;;19.13;82.27
70133;BME280;57495;49.922;7.966;2023-07-31T07:39:52;99567.75;;;19.25;80.43
70133;BME280;57495;49.922;7.966;2023-07-31T07:41:53;99569.41;;;19.40;80.24
70133;BME280;57495;49.922;7.966;2023-07-31T07:43:55;99560.41;;;19.53;81.38
70133;BME280;57495;49.922;7.966;2023-07-31T07:45:56;99559.56;;;19.45;80.33
70133;BME280;57495;49.922;7.966;2023-07-31T07:47:58;99557.53;;;19.34;81.96
70133;BME280;57495;49.922;7.966;2023-07-31T07:50:00;99554.84;;;19.14;80.02
70133;BME280;57495;49.922;7.966;2023-07-31T07:52:01;99559.41;;;19.13;81.93
70133;BME280;57495;49.922;7.966;2023-07-31T07:54:03;99556.28;;;19.17;82.27
70133;BME280;57495;49.922;7.966;2023-07-31T07:56:06;99555.00;;;19.26;80.75
70133;BME280;57495;49.922;7.966;2023-07-31T07:58:08;99558.34;;;19.35;80.91
70133;BME280;57495;49.922;7.966;2023-07-31T08:00:10;99548.72;;;19.45;80.69
70133;BME280;57495;49.922;7.966;2023-07-31T08:02:11;99550.81;;;19.43;80.27
70133;BME280;57495;49.922;7.966;2023-07-31T08:04:13;99543.94;;;19.47;81.62
70133;BME280;57495;49.922;7.966;2023-07-31T08:06:14;99540.97;;;19.56;81.20
70133;BME280;57495;49.922;7.966;2023-07-31T08:08:16;99536.19;;;19.44;80.76
70133;BME280;57495;49.922;7.966;2023-07-31T08:10:17;99532.88;;;19.42;80.69
70133;BME280;57495;49.922;7.966;2023-07-31T08:12:20;99534.75;;;19.35;79.53
70133;BME280;57495;49.922;7.966;2023-07-31T08:14:22;99542.22;;;19.53;81.85
70133;BME280;57495;49.922;7.966;2023-07-31T08:16:22;99538.09;;;19.44;80.45
70133;BME280;57495;49.922;7.966;2023-07-31T08:18:23;99531.63;;;19.38;80.07
70133;BME280;57495;49.922;7.966;2023-07-31T08:20:26;99524.94;;;19.41;79.42
70133;BME280;57495;49.922;7.966;2023-07-31T08:22:28;99527.66;;;19.47;81.90
70133;BME280;57495;49.922;7.966;2023-07-31T08:24:29;99514.69;;;19.49;81.98
70133;BME280;57495;49.922;7.966;2023-07-31T08:26:31;99506.16;;;19.53;80.60
70133;BME280;57495;49.922;7.966;2023-07-31T08:28:34;99506.72;;;19.61;81.59
70133;BME280;57495;49.922;7.966;2023-07-31T08:30:36;99518.84;;;19.59;80.15
70133;BME280;57495;49.922;7.966;2023-07-31T08:32:38;99523.22;;;19.60;81.20
70133;BME280;57495;49.922;7.966;2023-07-31T08:34:39;99525.75;;;19.55;80.05
70133;BME280;57495;49.922;7.966;2023-07-31T08:36:41;99541.16;;;19.54;79.49
70133;BME280;57495;49.922;7.966;2023-07-31T08:38:45;99533.28;;;19.53;78.89
70133;BME280;57495;49.922;7.966;2023-07-31T08:40:46;99528.00;;;19.58;78.04
70133;BME280;57495;49.922;7.966;2023-07-31T08:42:49;99528.41;;;19.75;78.04
70133;BME280;57495;49.922;7.966;2023-07-31T08:44:53;99521.81;;;20.02;77.09
70133;BME280;57495;49.922;7.966;2023-07-31T08:46:56;99519.31;;;20.01;75.21
70133;BME280;57495;49.922;7.966;2023-07-31T08:48:58;99514.72;;;20.01;76.66
70133;BME280;57495;49.922;7.966;2023-07-31T08:51:00;99516.53;;;20.14;76.56
70133;BME280;57495;49.922;7.966;2023-07-31T08:53:01;99509.91;;;20.03;75.31
70133;BME280;57495;49.922;7.966;2023-07-31T08:55:04;99506.63;;;20.26;77.75
70133;BME280;57495;49.922;7.966;2023-07-31T08:57:06;99515.41;;;20.28;75.24
70133;BME280;57495;49.922;7.966;2023-07-31T08:59:08;99512.72;;;20.22;76.13
70133;BME280;57495;49.922;7.966;2023-07-31T09:01:12;99517.41;;;20.40;75.23
70133;BME280;57495;49.922;7.966;2023-07-31T09:03:15;99518.72;;;20.31;75.47
70133;BME280;57495;49.922;7.966;2023-07-31T09:05:19;99513.50;;;20.29;75.17
70133;BME280;57495;49.922;7.966;2023-07-31T09:07:21;99511.22;;;20.26;75.01
70133;BME280;57495;49.922;7.966;2023-07-31T09:09:22;99501.97;;;20.34;73.56
70133;BME280;57495;49.922;7.966;2023-07-31T09:11:23;99487.56;;;20.65;74.27
70133;BME280;57495;49.922;7.966;2023-07-31T09:13:27;99504.09;;;20.63;74.03
70133;BME280;57495;49.922;7.966;2023-07-31T09:15:29;99513.63;;;20.41;71.82
70133;BME280;57495;49.922;7.966;2023-07-31T09:17:32;99503.47;;;20.61;74.42
70133;BME280;57495;49.922;7.966;2023-07-31T09:19:34;99498.91;;;20.55;72.70
70133;BME280;57495;49.922;7.966;2023-07-31T09:21:47;99482.09;;;20.72;72.71
70133;BME280;57495;49.922;7.966;2023-07-31T09:23:49;99491.06;;;20.72;73.89
70133;BME280;57495;49.922;7.966;2023-07-31T09:25:53;99493.88;;;20.59;73.41
70133;BME280;57495;49.922;7.966;2023-07-31T09:27:59;99488.25;;;20.60;72.83
70133;BME280;57495;49.922;7.966;2023-07-31T09:30:01;99488.03;;;20.55;72.11
70133;BME280;57495;49.922;7.966;2023-07-31T09:32:03;99475.69;;;20.84;72.73
70133;BME280;57495;49.922;7.966;2023-07-31T09:34:06;99483.22;;;21.26;71.49
70133;BME280;57495;49.922;7.966;2023-07-31T09:36:07;99468.56;;;21.27;71.29
70133;BME280;57495;49.922;7.966;2023-07-31T09:38:10;99470.81;;;21.12;67.91
70133;BME280;57495;49.922;7.966;2023-07-31T09:40:24;99471.41;;;20.95;68.53
70133;BME280;57495;49.922;7.966;2023-07-31T09:42:26;99470.06;;;21.04;69.65
70133;BME280;57495;49.922;7.966;2023-07-31T09:44:37;99473.84;;;21.03;67.90
70133;BME280;57495;49.922;7.966;2023-07-31T09:46:40;99476.56;;;21.03;68.13
70133;BME280;57495;49.922;7.966;2023-07-31T09:48:42;99463.66;;;20.99;67.44
70133;BME280;57495;49.922;7.966;2023-07-31T09:50:46;99465.66;;;20.85;68.69
70133;BME280;57495;49.922;7.966;2023-07-31T09:52:48;99461.28;;;20.84;68.46
70133;BME280;57495;49.922;7.966;2023-07-31T09:54:49;99462.00;;;20.73;70.15
70133;BME280;57495;49.922;7.966;2023-07-31T09:56:52;99464.81;;;20.59;69.09
70133;BME280;57495;49.922;7.966;2023-07-31T09:58:55;99460.25;;;20.53;70.59
70133;BME280;57495;49.922;7.966;2023-07-31T10:00:57;99460.69;;;20.50;70.81
70133;BME280;57495;49.922;7.966;2023-07-31T10:03:00;99464.41;;;20.56;70.62
70133;BME280;57495;49.922;7.966;2023-07-31T10:05:02;99459.84;;;20.56;68.44
70133;BME280;57495;49.922;7.966;2023-07-31T10:07:06;99458.38;;;20.54;69.09
70133;BME280;57495;49.922;7.966;2023-07-31T10:09:09;99453.31;;;20.64;68.46
70133;BME280;57495;49.922;7.966;2023-07-31T10:11:11;99459.53;;;20.71;68.70
70133;BME280;57495;49.922;7.966;2023-07-31T10:13:15;99461.13;;;20.79;68.50
70133;BME280;57495;49.922;7.966;2023-07-31T10:15:17;99460.59;;;20.89;67.84
70133;BME280;57495;49.922;7.966;2023-07-31T10:17:18;99463.38;;;20.82;68.95
70133;BME280;57495;49.922;7.966;2023-07-31T10:19:21;99451.59;;;20.70;68.60
70133;BME280;57495;49.922;7.966;2023-07-31T10:21:23;99458.28;;;20.67;69.10
70133;BME280;57495;49.922;7.966;2023-07-31T10:23:26;99451.63;;;20.63;68.66
70133;BME280;57495;49.922;7.966;2023-07-31T10:25:27;99451.19;;;20.66;68.75
70133;BME280;57495;49.922;7.966;2023-07-31T10:27:30;99444.47;;;20.69;69.44
70133;BME280;57495;49.922;7.966;2023-07-31T10:29:32;99450.97;;;20.68;68.57
70133;BME280;57495;49.922;7.966;2023-07-31T10:31:32;99441.53;;;20.70;69.95
70133;BME280;57495;49.922;7.966;2023-07-31T10:33:36;99440.31;;;20.66;69.06
70133;BME280;57495;49.922;7.966;2023-07-31T10:35:38;99435.72;;;20.66;68.35
70133;BME280;57495;49.922;7.966;2023-07-31T10:37:40;99440.19;;;20.79;69.28
70133;BME280;57495;49.922;7.966;2023-07-31T10:39:55;99435.91;;;20.90;68.62
70133;BME280;57495;49.922;7.966;2023-07-31T10:41:57;99432.88;;;20.98;67.67
70133;BME280;57495;49.922;7.966;2023-07-31T10:43:59;99432.44;;;21.01;67.85
70133;BME280;57495;49.922;7.966;2023-07-31T10:46:06;99425.34;;;21.00;67.71